Terminal Aerodrome Forecast
Issued by NWS

Home | Current Version | Previous Version | Text Only | Print | Product List | Glossary Off
Versions: 1 2 3 4 5 6 7 8 9 10 11 12 13

000
FTUS43 KFGF 151134 AAA
TAFBJI
TAF AMD
KBJI 151134Z 1512/1612 29004KT P6SM FEW110
     FM151700 24007KT P6SM BKN080
     FM160100 27006KT P6SM SCT100=

USA.gov is the U.S. government's official web portal to all federal, state and local government web resources and services.